Time,TemperatureF,DewpointF,PressureIn,WindDirection,WindDirectionDegrees,WindSpeedMPH,WindSpeedGustMPH,Humidity,HourlyPrecipIn,Conditions,Clouds,dailyrainin,SoftwareType,DateUTC
2013-09-27 00:09:00,81.6,78.0,29.87,NW,312,1.0,4.0,88,0.00,,,0.00,weatherlink.com 1.10,2013-09-27 04:09:00,
2013-09-27 00:24:00,81.4,77.0,29.87,NNW,339,2.0,6.0,87,0.00,,,0.00,weatherlink.com 1.10,2013-09-27 04:24:00,
2013-09-27 00:39:00,81.1,77.0,29.87,NNW,337,0.0,3.0,87,0.00,,,0.00,weatherlink.com 1.10,2013-09-27 04:39:00,
2013-09-27 00:54:00,80.7,77.0,29.88,NNW,337,1.0,3.0,87,0.00,,,0.00,weatherlink.com 1.10,2013-09-27 04:54:00,
2013-09-27 01:09:00,80.5,77.0,29.87,NNW,337,1.0,4.0,88,0.00,,,0.00,weatherlink.com 1.10,2013-09-27 05:09:00,
2013-09-27 01:24:00,80.2,76.0,29.87,NNW,338,2.0,5.0,88,0.00,,,0.00,weatherlink.com 1.10,2013-09-27 05:24:00,
2013-09-27 01:39:00,79.6,76.0,29.87,NNW,338,0.0,4.0,88,0.00,,,0.00,weatherlink.com 1.10,2013-09-27 05:39:00,
2013-09-27 01:54:00,78.9,75.0,29.87,NNE,12,3.0,7.0,88,0.00,,,0.00,weatherlink.com 1.10,2013-09-27 05:54:00,
2013-09-27 02:09:00,78.4,75.0,29.86,North,10,1.0,5.0,88,0.00,,,0.00,weatherlink.com 1.10,2013-09-27 06:09:00,
2013-09-27 02:24:00,77.9,74.0,29.86,North,10,2.0,3.0,88,0.00,,,0.00,weatherlink.com 1.10,2013-09-27 06:24:00,
2013-09-27 02:39:00,77.5,74.0,29.86,North,10,1.0,2.0,89,0.00,,,0.00,weatherlink.com 1.10,2013-09-27 06:39:00,
2013-09-27 02:54:00,77.2,74.0,29.86,North,10,0.0,1.0,89,0.00,,,0.00,weatherlink.com 1.10,2013-09-27 06:54:00,
2013-09-27 03:09:00,76.8,73.0,29.86,North,10,0.0,4.0,89,0.00,,,0.00,weatherlink.com 1.10,2013-09-27 07:09:00,
2013-09-27 03:24:00,76.6,74.0,29.86,North,10,0.0,0.0,90,0.00,,,0.00,weatherlink.com 1.10,2013-09-27 07:24:00,
2013-09-27 03:39:00,76.3,74.0,29.86,North,10,0.0,3.0,91,0.00,,,0.00,weatherlink.com 1.10,2013-09-27 07:39:00,
2013-09-27 03:54:00,76.0,73.0,29.86,North,10,0.0,2.0,91,0.00,,,0.00,weatherlink.com 1.10,2013-09-27 07:54:00,
2013-09-27 04:09:00,75.8,73.0,29.86,North,10,1.0,3.0,92,0.00,,,0.00,weatherlink.com 1.10,2013-09-27 08:09:00,
2013-09-27 04:24:00,75.7,73.0,29.85,North,8,3.0,4.0,92,0.00,,,0.00,weatherlink.com 1.10,2013-09-27 08:24:00,
2013-09-27 04:39:00,75.5,73.0,29.86,North,7,0.0,4.0,92,0.00,,,0.00,weatherlink.com 1.10,2013-09-27 08:39:00,
2013-09-27 04:55:00,75.2,73.0,29.86,North,7,0.0,3.0,92,0.00,,,0.00,weatherlink.com 1.10,2013-09-27 08:55:00,
2013-09-27 05:10:00,75.1,73.0,29.86,North,7,0.0,3.0,92,0.00,,,0.00,weatherlink.com 1.10,2013-09-27 09:10:00,
2013-09-27 05:25:00,74.9,73.0,29.86,North,7,1.0,3.0,92,0.00,,,0.00,weatherlink.com 1.10,2013-09-27 09:25:00,
2013-09-27 05:40:00,74.9,73.0,29.86,North,7,3.0,5.0,93,0.00,,,0.00,weatherlink.com 1.10,2013-09-27 09:40:00,
2013-09-27 05:55:00,74.8,73.0,29.87,North,8,1.0,6.0,93,0.00,,,0.00,weatherlink.com 1.10,2013-09-27 09:55:00,
2013-09-27 06:10:00,74.6,73.0,29.87,North,8,4.0,5.0,93,0.00,,,0.00,weatherlink.com 1.10,2013-09-27 10:10:00,
2013-09-27 06:25:00,74.5,72.0,29.87,North,8,4.0,5.0,93,0.00,,,0.00,weatherlink.com 1.10,2013-09-27 10:25:00,
2013-09-27 06:55:00,74.4,72.0,29.88,North,6,4.0,6.0,93,0.00,,,0.00,weatherlink.com 1.10,2013-09-27 10:55:00,
2013-09-27 07:10:00,74.4,72.0,29.88,North,2,0.0,5.0,93,0.00,,,0.00,weatherlink.com 1.10,2013-09-27 11:10:00,
2013-09-27 07:25:00,74.3,73.0,29.88,North,2,2.0,5.0,94,0.00,,,0.00,weatherlink.com 1.10,2013-09-27 11:25:00,
2013-09-27 07:40:00,74.3,73.0,29.89,North,4,1.0,7.0,94,0.00,,,0.00,weatherlink.com 1.10,2013-09-27 11:40:00,
2013-09-27 07:55:00,74.5,73.0,29.90,North,358,2.0,8.0,94,0.00,,,0.00,weatherlink.com 1.10,2013-09-27 11:55:00,
2013-09-27 08:10:00,74.7,73.0,29.90,NNE,12,6.0,7.0,94,0.00,,,0.00,weatherlink.com 1.10,2013-09-27 12:10:00,
2013-09-27 08:25:00,75.1,73.0,29.91,NNE,18,3.0,9.0,94,0.00,,,0.00,weatherlink.com 1.10,2013-09-27 12:25:00,
2013-09-27 08:40:00,75.4,74.0,29.91,NNE,14,7.0,11.0,94,0.00,,,0.00,weatherlink.com 1.10,2013-09-27 12:40:00,
2013-09-27 08:55:00,76.1,74.0,29.91,NNE,26,2.0,9.0,94,0.00,,,0.00,weatherlink.com 1.10,2013-09-27 12:55:00,
2013-09-27 09:10:00,76.8,75.0,29.91,NNE,20,7.0,8.0,93,0.00,,,0.00,weatherlink.com 1.10,2013-09-27 13:10:00,
2013-09-27 09:25:00,77.5,75.0,29.92,North,2,5.0,6.0,93,0.00,,,0.00,weatherlink.com 1.10,2013-09-27 13:25:00,
2013-09-27 09:40:00,78.6,76.0,29.92,NE,34,4.0,8.0,92,0.00,,,0.00,weatherlink.com 1.10,2013-09-27 13:40:00,
2013-09-27 09:55:00,79.3,77.0,29.92,NNE,12,5.0,7.0,91,0.00,,,0.00,weatherlink.com 1.10,2013-09-27 13:55:00,
2013-09-27 10:10:00,80.2,77.0,29.92,NE,37,4.0,8.0,90,0.00,,,0.00,weatherlink.com 1.10,2013-09-27 14:10:00,
2013-09-27 10:25:00,81.3,78.0,29.92,NNE,27,3.0,7.0,89,0.00,,,0.00,weatherlink.com 1.10,2013-09-27 14:25:00,
2013-09-27 10:40:00,81.8,78.0,29.92,NNE,12,2.0,9.0,87,0.00,,,0.00,weatherlink.com 1.10,2013-09-27 14:40:00,
2013-09-27 10:55:00,82.4,78.0,29.92,NNE,12,3.0,7.0,86,0.00,,,0.00,weatherlink.com 1.10,2013-09-27 14:55:00,
2013-09-27 11:10:00,83.4,78.0,29.92,NNE,12,1.0,4.0,83,0.00,,,0.00,weatherlink.com 1.10,2013-09-27 15:10:00,
2013-09-27 11:25:00,83.9,78.0,29.92,North,10,4.0,10.0,83,0.00,,,0.00,weatherlink.com 1.10,2013-09-27 15:25:00,
2013-09-27 11:40:00,84.6,78.0,29.92,NNW,345,1.0,10.0,80,0.00,,,0.00,weatherlink.com 1.10,2013-09-27 15:40:00,
2013-09-27 11:55:00,84.8,77.0,29.92,NW,320,0.0,9.0,77,0.00,,,0.00,weatherlink.com 1.10,2013-09-27 15:55:00,
2013-09-27 12:10:00,85.9,77.0,29.92,NNW,345,3.0,9.0,75,0.00,,,0.00,weatherlink.com 1.10,2013-09-27 16:10:00,
2013-09-27 12:25:00,85.3,77.0,29.92,NNW,339,3.0,8.0,75,0.00,,,0.00,weatherlink.com 1.10,2013-09-27 16:25:00,
2013-09-27 12:40:00,85.5,77.0,29.91,North,359,2.0,7.0,76,0.00,,,0.00,weatherlink.com 1.10,2013-09-27 16:40:00,
2013-09-27 12:55:00,86.7,77.0,29.91,NNW,337,5.0,9.0,72,0.00,,,0.00,weatherlink.com 1.10,2013-09-27 16:55:00,
2013-09-27 13:25:00,86.1,77.0,29.90,North,360,5.0,17.0,73,0.00,,,0.00,weatherlink.com 1.10,2013-09-27 17:25:00,
2013-09-27 13:40:00,85.9,76.0,29.89,North,10,2.0,16.0,73,0.00,,,0.00,weatherlink.com 1.10,2013-09-27 17:40:00,
2013-09-27 13:55:00,85.9,76.0,29.89,WNW,289,15.0,17.0,72,0.00,,,0.00,weatherlink.com 1.10,2013-09-27 17:55:00,
2013-09-27 14:10:00,86.0,76.0,29.88,NNW,339,6.0,16.0,71,0.00,,,0.00,weatherlink.com 1.10,2013-09-27 18:10:00,
2013-09-27 14:25:00,85.9,75.0,29.87,North,353,8.0,17.0,70,0.00,,,0.00,weatherlink.com 1.10,2013-09-27 18:25:00,
2013-09-27 14:40:00,86.2,75.0,29.87,NNW,335,5.0,15.0,70,0.00,,,0.00,weatherlink.com 1.10,2013-09-27 18:40:00,
2013-09-27 14:55:00,85.9,75.0,29.87,West,270,13.0,21.0,70,0.00,,,0.00,weatherlink.com 1.10,2013-09-27 18:55:00,
2013-09-27 15:10:00,85.3,75.0,29.86,WNW,301,11.0,17.0,72,0.00,,,0.00,weatherlink.com 1.10,2013-09-27 19:10:00,
2013-09-27 15:25:00,85.4,75.0,29.87,WNW,286,12.0,17.0,71,0.00,,,0.00,weatherlink.com 1.10,2013-09-27 19:25:00,
2013-09-27 15:40:00,85.4,73.0,29.86,WNW,300,10.0,17.0,67,0.00,,,0.00,weatherlink.com 1.10,2013-09-27 19:40:00,
2013-09-27 15:55:00,86.1,73.0,29.86,WNW,294,9.0,16.0,65,0.00,,,0.00,weatherlink.com 1.10,2013-09-27 19:55:00,
2013-09-27 16:10:00,85.8,73.0,29.86,West,268,9.0,18.0,65,0.00,,,0.00,weatherlink.com 1.10,2013-09-27 20:10:00,
2013-09-27 16:25:00,86.0,72.0,29.86,West,278,10.0,15.0,63,0.00,,,0.00,weatherlink.com 1.10,2013-09-27 20:25:00,
2013-09-27 16:40:00,86.1,74.0,29.86,NW,311,4.0,16.0,68,0.00,,,0.00,weatherlink.com 1.10,2013-09-27 20:40:00,
2013-09-27 16:55:00,85.5,76.0,29.86,WNW,291,14.0,18.0,72,0.00,,,0.00,weatherlink.com 1.10,2013-09-27 20:55:00,
2013-09-27 17:11:00,85.2,75.0,29.86,WNW,288,16.0,17.0,72,0.00,,,0.00,weatherlink.com 1.10,2013-09-27 21:11:00,
2013-09-27 17:26:00,84.8,75.0,29.87,WNW,296,12.0,17.0,73,0.00,,,0.00,weatherlink.com 1.10,2013-09-27 21:26:00,
2013-09-27 17:41:00,84.6,76.0,29.87,NW,310,8.0,17.0,74,0.00,,,0.00,weatherlink.com 1.10,2013-09-27 21:41:00,
2013-09-27 17:56:00,84.7,76.0,29.86,NNW,329,2.0,15.0,74,0.00,,,0.00,weatherlink.com 1.10,2013-09-27 21:56:00,
2013-09-27 18:11:00,84.8,76.0,29.86,WNW,297,8.0,13.0,74,0.00,,,0.00,weatherlink.com 1.10,2013-09-27 22:11:00,
2013-09-27 18:26:00,84.6,76.0,29.87,NW,304,7.0,15.0,74,0.00,,,0.00,weatherlink.com 1.10,2013-09-27 22:26:00,
2013-09-27 18:41:00,84.3,76.0,29.87,WNW,292,7.0,11.0,75,0.00,,,0.00,weatherlink.com 1.10,2013-09-27 22:41:00,
2013-09-27 18:56:00,84.1,75.0,29.88,WNW,291,8.0,11.0,75,0.00,,,0.00,weatherlink.com 1.10,2013-09-27 22:56:00,
2013-09-27 19:11:00,83.5,75.0,29.88,NW,307,0.0,11.0,76,0.00,,,0.00,weatherlink.com 1.10,2013-09-27 23:11:00,
2013-09-27 19:26:00,83.1,74.0,29.88,NW,307,1.0,3.0,75,0.00,,,0.00,weatherlink.com 1.10,2013-09-27 23:26:00,
2013-09-27 19:41:00,82.7,74.0,29.88,NW,307,1.0,4.0,74,0.00,,,0.00,weatherlink.com 1.10,2013-09-27 23:41:00,
2013-09-27 19:56:00,82.0,73.0,29.89,NW,307,0.0,0.0,75,0.00,,,0.00,weatherlink.com 1.10,2013-09-27 23:56:00,
2013-09-27 20:11:00,81.3,73.0,29.89,NW,307,0.0,0.0,76,0.00,,,0.00,weatherlink.com 1.10,2013-09-28 00:11:00,
2013-09-27 20:26:00,80.7,73.0,29.89,NW,307,0.0,0.0,77,0.00,,,0.00,weatherlink.com 1.10,2013-09-28 00:26:00,
2013-09-27 20:41:00,80.2,72.0,29.90,NW,307,2.0,4.0,77,0.00,,,0.00,weatherlink.com 1.10,2013-09-28 00:41:00,
2013-09-27 20:56:00,79.8,72.0,29.90,NW,307,0.0,3.0,77,0.00,,,0.00,weatherlink.com 1.10,2013-09-28 00:56:00,
2013-09-27 21:11:00,79.6,72.0,29.91,NW,307,0.0,0.0,78,0.00,,,0.00,weatherlink.com 1.10,2013-09-28 01:11:00,
2013-09-27 21:26:00,79.4,73.0,29.91,NW,307,0.0,1.0,80,0.00,,,0.00,weatherlink.com 1.10,2013-09-28 01:26:00,
2013-09-27 21:41:00,79.2,73.0,29.91,NW,307,2.0,2.0,80,0.00,,,0.00,weatherlink.com 1.10,2013-09-28 01:41:00,
2013-09-27 21:56:00,79.2,73.0,29.92,NW,307,0.0,2.0,81,0.00,,,0.00,weatherlink.com 1.10,2013-09-28 01:56:00,
2013-09-27 22:11:00,79.1,73.0,29.92,NW,307,4.0,5.0,81,0.00,,,0.00,weatherlink.com 1.10,2013-09-28 02:11:00,
2013-09-27 22:26:00,78.9,73.0,29.92,North,360,2.0,6.0,81,0.00,,,0.00,weatherlink.com 1.10,2013-09-28 02:26:00,
2013-09-27 22:41:00,79.1,73.0,29.93,NNE,33,7.0,8.0,82,0.00,,,0.00,weatherlink.com 1.10,2013-09-28 02:41:00,
2013-09-27 22:56:00,79.2,74.0,29.93,NNE,31,5.0,8.0,83,0.00,,,0.00,weatherlink.com 1.10,2013-09-28 02:56:00,
2013-09-27 23:11:00,79.0,74.0,29.93,NNE,33,6.0,7.0,83,0.00,,,0.00,weatherlink.com 1.10,2013-09-28 03:11:00,
2013-09-27 23:26:00,78.9,74.0,29.93,NE,41,5.0,8.0,84,0.00,,,0.00,weatherlink.com 1.10,2013-09-28 03:26:00,
2013-09-27 23:41:00,78.7,74.0,29.93,ENE,58,6.0,9.0,85,0.00,,,0.00,weatherlink.com 1.10,2013-09-28 03:41:00,
2013-09-27 23:56:00,78.6,74.0,29.93,NE,47,6.0,9.0,85,0.00,,,0.00,weatherlink.com 1.10,2013-09-28 03:56:00,